Profiler II — CZ2496 — position and weather

sailwx.info

Track history (hours):
 
Tides and Currents Weather Stations Pressure Air Temp Water Temp Dewpoint Dewpoint Depression Visibility Wind Speed Wind Dir Waves Ship Positions

Profiler II

Last reported at 2017-Jul-25 22:54 UTC. Time now 2017-Jul-26 06:29 UTC.
Position N 49°11' W 122°55'.

Type: Other ship. MMSI: 316002054.

Date/timePositionNaut miles runAvg speedWind from/ knotsBaromVisibWave heightAir tempDewpointWater temp
2017-Jul-25 22:54N 49°11' W 122°55'3 1.4
2017-Jul-25 20:39N 49°09' W 122°60'0 1.1
2017-Jul-25 20:27N 49°09' W 122°59'3 4.4
2017-Jul-25 19:45N 49°08' W 123°04'0 0.1
2017-Jul-25 19:20N 49°08' W 123°04'0 0.0
2017-Jul-25 18:58N 49°08' W 123°04'1 1.8
2017-Jul-25 18:18N 49°09' W 123°02'0 0.1
2017-Jul-25 17:50N 49°09' W 123°02'5 4.8
2017-Jul-25 16:46N 49°07' W 123°09'1 0.1
2017-Jul-24 21:42N 49°07' W 123°11'1 0.4
2017-Jul-24 18:24N 49°07' W 123°09'0 0.0
2017-Jul-24 17:42N 49°07' W 123°09'0 0.2
2017-Jul-24 16:44N 49°07' W 123°09'1 0.1
2017-Jul-24 05:06N 49°07' W 123°11'0 0.0
2017-Jul-23 15:13N 49°07' W 123°11'  
2017-Jul-19 20:58N 49°07' W 123°11'0 0.6
2017-Jul-19 20:22N 49°07' W 123°11'1 1.7
2017-Jul-19 19:58N 49°07' W 123°12'0 0.3
2017-Jul-19 19:29N 49°07' W 123°12'1 1.4
2017-Jul-19 18:55N 49°07' W 123°11'0 0.9
2017-Jul-19 18:29N 49°07' W 123°11'0 0.4
2017-Jul-19 17:59N 49°07' W 123°12'0 0.1
2017-Jul-19 17:26N 49°07' W 123°11'1 0.8
2017-Jul-19 16:44N 49°07' W 123°12'0 1.8
2017-Jul-19 16:30N 49°07' W 123°12'1 1.7
2017-Jul-19 15:56N 49°08' W 123°13'  
Track history (hours):
 
Tides and Currents Weather Stations Pressure Air Temp Water Temp Dewpoint Dewpoint Depression Visibility Wind Speed Wind Dir Waves Ship Positions

Profiler II

Last reported at 2017-Jul-25 22:54 UTC. Time now 2017-Jul-26 06:29 UTC.
Position N 49°11' W 122°55'.

Type: Other ship. MMSI: 316002054.

Date/timePositionNaut miles runAvg speedWind from/ knotsBaromVisibWave heightAir tempDewpointWater temp
2017-Jul-25 22:54N 49°11' W 122°55'3 1.4
2017-Jul-25 20:39N 49°09' W 122°60'0 1.1
2017-Jul-25 20:27N 49°09' W 122°59'3 4.4
2017-Jul-25 19:45N 49°08' W 123°04'0 0.1
2017-Jul-25 19:20N 49°08' W 123°04'0 0.0
2017-Jul-25 18:58N 49°08' W 123°04'1 1.8
2017-Jul-25 18:18N 49°09' W 123°02'0 0.1
2017-Jul-25 17:50N 49°09' W 123°02'5 4.8
2017-Jul-25 16:46N 49°07' W 123°09'1 0.1
2017-Jul-24 21:42N 49°07' W 123°11'1 0.4
2017-Jul-24 18:24N 49°07' W 123°09'0 0.0
2017-Jul-24 17:42N 49°07' W 123°09'0 0.2
2017-Jul-24 16:44N 49°07' W 123°09'1 0.1
2017-Jul-24 05:06N 49°07' W 123°11'0 0.0
2017-Jul-23 15:13N 49°07' W 123°11'  
2017-Jul-19 20:58N 49°07' W 123°11'0 0.6
2017-Jul-19 20:22N 49°07' W 123°11'1 1.7
2017-Jul-19 19:58N 49°07' W 123°12'0 0.3
2017-Jul-19 19:29N 49°07' W 123°12'1 1.4
2017-Jul-19 18:55N 49°07' W 123°11'0 0.9
2017-Jul-19 18:29N 49°07' W 123°11'0 0.4
2017-Jul-19 17:59N 49°07' W 123°12'0 0.1
2017-Jul-19 17:26N 49°07' W 123°11'1 0.8
2017-Jul-19 16:44N 49°07' W 123°12'0 1.8
2017-Jul-19 16:30N 49°07' W 123°12'1 1.7
2017-Jul-19 15:56N 49°08' W 123°13'  

Dump ship's entire track history